sensor_id;sensor_type;location;lat;lon;timestamp;P1;durP1;ratioP1;P2;durP2;ratioP2
27632;SDS011;15046;50.930;13.334;2023-05-29T00:01:14;12.15;;;6.03;;
27632;SDS011;15046;50.930;13.334;2023-05-29T00:03:46;8.35;;;5.20;;
27632;SDS011;15046;50.930;13.334;2023-05-29T00:06:13;12.25;;;6.53;;
27632;SDS011;15046;50.930;13.334;2023-05-29T00:08:38;8.82;;;5.32;;
27632;SDS011;15046;50.930;13.334;2023-05-29T00:11:04;14.93;;;5.70;;
27632;SDS011;15046;50.930;13.334;2023-05-29T00:13:31;10.65;;;5.40;;
27632;SDS011;15046;50.930;13.334;2023-05-29T00:15:58;11.13;;;5.22;;
27632;SDS011;15046;50.930;13.334;2023-05-29T00:18:25;10.18;;;6.25;;
27632;SDS011;15046;50.930;13.334;2023-05-29T00:20:52;10.60;;;4.68;;
27632;SDS011;15046;50.930;13.334;2023-05-29T00:23:18;8.80;;;4.68;;
27632;SDS011;15046;50.930;13.334;2023-05-29T00:25:46;8.25;;;5.35;;
27632;SDS011;15046;50.930;13.334;2023-05-29T00:28:11;10.25;;;5.60;;
27632;SDS011;15046;50.930;13.334;2023-05-29T00:30:37;10.65;;;5.13;;
27632;SDS011;15046;50.930;13.334;2023-05-29T00:33:04;9.52;;;4.93;;
27632;SDS011;15046;50.930;13.334;2023-05-29T00:35:30;7.32;;;4.35;;
27632;SDS011;15046;50.930;13.334;2023-05-29T00:37:57;11.63;;;5.35;;
27632;SDS011;15046;50.930;13.334;2023-05-29T00:40:23;10.43;;;4.40;;
27632;SDS011;15046;50.930;13.334;2023-05-29T00:42:50;10.23;;;5.22;;
27632;SDS011;15046;50.930;13.334;2023-05-29T00:45:17;9.10;;;5.10;;
27632;SDS011;15046;50.930;13.334;2023-05-29T00:47:44;10.02;;;5.25;;
27632;SDS011;15046;50.930;13.334;2023-05-29T00:50:11;8.23;;;4.82;;
27632;SDS011;15046;50.930;13.334;2023-05-29T00:52:41;9.50;;;4.95;;
27632;SDS011;15046;50.930;13.334;2023-05-29T00:55:08;12.23;;;5.45;;
27632;SDS011;15046;50.930;13.334;2023-05-29T00:57:35;11.07;;;5.47;;
27632;SDS011;15046;50.930;13.334;2023-05-29T01:00:04;11.40;;;5.78;;
27632;SDS011;15046;50.930;13.334;2023-05-29T01:02:34;15.35;;;6.22;;
27632;SDS011;15046;50.930;13.334;2023-05-29T01:05:01;10.30;;;5.75;;
27632;SDS011;15046;50.930;13.334;2023-05-29T01:07:27;12.77;;;5.35;;
27632;SDS011;15046;50.930;13.334;2023-05-29T01:09:53;11.30;;;5.85;;
27632;SDS011;15046;50.930;13.334;2023-05-29T01:12:23;9.98;;;5.95;;
27632;SDS011;15046;50.930;13.334;2023-05-29T01:20:02;14.18;;;6.15;;
27632;SDS011;15046;50.930;13.334;2023-05-29T01:22:37;12.63;;;5.87;;
27632;SDS011;15046;50.930;13.334;2023-05-29T01:28:03;13.30;;;6.28;;
27632;SDS011;15046;50.930;13.334;2023-05-29T01:30:31;8.50;;;5.00;;
27632;SDS011;15046;50.930;13.334;2023-05-29T01:35:46;13.23;;;5.75;;
27632;SDS011;15046;50.930;13.334;2023-05-29T01:38:12;13.30;;;5.75;;
27632;SDS011;15046;50.930;13.334;2023-05-29T01:40:38;12.52;;;6.35;;
27632;SDS011;15046;50.930;13.334;2023-05-29T01:43:04;12.52;;;5.35;;
27632;SDS011;15046;50.930;13.334;2023-05-29T01:45:31;9.30;;;5.03;;
27632;SDS011;15046;50.930;13.334;2023-05-29T01:47:57;8.18;;;4.22;;
27632;SDS011;15046;50.930;13.334;2023-05-29T01:50:23;10.05;;;5.00;;
27632;SDS011;15046;50.930;13.334;2023-05-29T01:52:52;10.45;;;5.78;;
27632;SDS011;15046;50.930;13.334;2023-05-29T01:55:18;9.32;;;4.55;;
27632;SDS011;15046;50.930;13.334;2023-05-29T01:57:44;12.77;;;4.60;;
27632;SDS011;15046;50.930;13.334;2023-05-29T02:00:11;8.75;;;4.38;;
27632;SDS011;15046;50.930;13.334;2023-05-29T02:02:37;7.15;;;4.30;;
27632;SDS011;15046;50.930;13.334;2023-05-29T02:05:07;9.48;;;4.80;;
27632;SDS011;15046;50.930;13.334;2023-05-29T02:07:36;9.10;;;4.32;;
27632;SDS011;15046;50.930;13.334;2023-05-29T02:10:06;7.93;;;4.38;;
27632;SDS011;15046;50.930;13.334;2023-05-29T02:12:32;9.75;;;4.47;;
27632;SDS011;15046;50.930;13.334;2023-05-29T02:14:58;7.15;;;4.20;;
27632;SDS011;15046;50.930;13.334;2023-05-29T02:17:23;6.88;;;4.25;;
27632;SDS011;15046;50.930;13.334;2023-05-29T02:19:50;7.28;;;3.58;;
27632;SDS011;15046;50.930;13.334;2023-05-29T02:22:17;7.68;;;3.97;;
27632;SDS011;15046;50.930;13.334;2023-05-29T02:24:43;9.70;;;4.15;;
27632;SDS011;15046;50.930;13.334;2023-05-29T02:27:09;8.10;;;4.38;;
27632;SDS011;15046;50.930;13.334;2023-05-29T02:29:34;7.80;;;4.30;;
27632;SDS011;15046;50.930;13.334;2023-05-29T02:32:00;7.55;;;3.95;;
27632;SDS011;15046;50.930;13.334;2023-05-29T02:34:26;10.18;;;3.78;;
27632;SDS011;15046;50.930;13.334;2023-05-29T02:36:52;8.23;;;4.25;;
27632;SDS011;15046;50.930;13.334;2023-05-29T02:39:18;8.93;;;3.90;;
27632;SDS011;15046;50.930;13.334;2023-05-29T02:41:44;8.68;;;4.45;;
27632;SDS011;15046;50.930;13.334;2023-05-29T02:44:10;9.45;;;4.15;;
27632;SDS011;15046;50.930;13.334;2023-05-29T02:46:36;9.10;;;3.85;;
27632;SDS011;15046;50.930;13.334;2023-05-29T02:49:02;9.30;;;4.10;;
27632;SDS011;15046;50.930;13.334;2023-05-29T02:51:28;7.13;;;3.67;;
27632;SDS011;15046;50.930;13.334;2023-05-29T02:53:57;7.97;;;4.80;;
27632;SDS011;15046;50.930;13.334;2023-05-29T02:56:23;7.93;;;4.25;;
27632;SDS011;15046;50.930;13.334;2023-05-29T02:58:50;8.15;;;3.78;;
27632;SDS011;15046;50.930;13.334;2023-05-29T03:01:16;5.90;;;3.17;;
27632;SDS011;15046;50.930;13.334;2023-05-29T03:03:43;8.88;;;3.60;;
27632;SDS011;15046;50.930;13.334;2023-05-29T03:06:09;9.50;;;3.97;;
27632;SDS011;15046;50.930;13.334;2023-05-29T03:08:42;10.65;;;4.13;;
27632;SDS011;15046;50.930;13.334;2023-05-29T03:11:10;7.68;;;3.72;;
27632;SDS011;15046;50.930;13.334;2023-05-29T03:13:38;9.20;;;3.85;;
27632;SDS011;15046;50.930;13.334;2023-05-29T03:16:04;8.38;;;3.92;;
27632;SDS011;15046;50.930;13.334;2023-05-29T03:18:31;8.13;;;3.60;;
27632;SDS011;15046;50.930;13.334;2023-05-29T03:20:57;8.23;;;3.97;;
27632;SDS011;15046;50.930;13.334;2023-05-29T03:23:23;5.70;;;3.03;;
27632;SDS011;15046;50.930;13.334;2023-05-29T03:25:48;7.00;;;3.45;;
27632;SDS011;15046;50.930;13.334;2023-05-29T03:28:14;6.53;;;3.35;;
27632;SDS011;15046;50.930;13.334;2023-05-29T03:30:40;5.40;;;3.05;;
27632;SDS011;15046;50.930;13.334;2023-05-29T03:33:06;8.40;;;4.05;;
27632;SDS011;15046;50.930;13.334;2023-05-29T03:35:32;7.68;;;3.50;;
27632;SDS011;15046;50.930;13.334;2023-05-29T03:37:58;7.72;;;3.92;;
27632;SDS011;15046;50.930;13.334;2023-05-29T03:40:24;12.43;;;4.82;;
27632;SDS011;15046;50.930;13.334;2023-05-29T03:42:50;6.78;;;4.03;;
27632;SDS011;15046;50.930;13.334;2023-05-29T03:45:16;7.60;;;4.18;;
27632;SDS011;15046;50.930;13.334;2023-05-29T03:47:42;8.50;;;3.97;;
27632;SDS011;15046;50.930;13.334;2023-05-29T03:50:08;6.80;;;4.03;;
27632;SDS011;15046;50.930;13.334;2023-05-29T03:52:34;8.27;;;4.25;;
27632;SDS011;15046;50.930;13.334;2023-05-29T03:55:01;8.73;;;4.57;;
27632;SDS011;15046;50.930;13.334;2023-05-29T03:57:27;8.18;;;4.57;;
27632;SDS011;15046;50.930;13.334;2023-05-29T03:59:53;9.68;;;4.60;;
27632;SDS011;15046;50.930;13.334;2023-05-29T04:02:19;8.63;;;4.20;;
27632;SDS011;15046;50.930;13.334;2023-05-29T04:04:44;5.97;;;3.47;;
27632;SDS011;15046;50.930;13.334;2023-05-29T04:07:10;7.82;;;4.10;;
27632;SDS011;15046;50.930;13.334;2023-05-29T04:09:36;7.65;;;3.85;;
27632;SDS011;15046;50.930;13.334;2023-05-29T04:12:02;9.15;;;4.30;;
27632;SDS011;15046;50.930;13.334;2023-05-29T04:14:30;8.20;;;4.13;;
27632;SDS011;15046;50.930;13.334;2023-05-29T04:16:56;10.77;;;4.78;;
27632;SDS011;15046;50.930;13.334;2023-05-29T04:19:22;9.57;;;5.03;;
27632;SDS011;15046;50.930;13.334;2023-05-29T04:21:48;8.35;;;4.22;;
27632;SDS011;15046;50.930;13.334;2023-05-29T04:24:14;8.90;;;4.00;;
27632;SDS011;15046;50.930;13.334;2023-05-29T04:26:40;10.30;;;4.15;;
27632;SDS011;15046;50.930;13.334;2023-05-29T04:29:06;7.90;;;3.83;;
27632;SDS011;15046;50.930;13.334;2023-05-29T04:31:33;9.07;;;3.55;;
27632;SDS011;15046;50.930;13.334;2023-05-29T04:34:01;10.45;;;4.43;;
27632;SDS011;15046;50.930;13.334;2023-05-29T04:36:29;9.40;;;4.43;;
27632;SDS011;15046;50.930;13.334;2023-05-29T04:38:57;10.10;;;4.75;;
27632;SDS011;15046;50.930;13.334;2023-05-29T04:41:24;9.27;;;4.00;;
27632;SDS011;15046;50.930;13.334;2023-05-29T04:43:57;11.70;;;5.05;;
27632;SDS011;15046;50.930;13.334;2023-05-29T04:46:24;11.05;;;4.63;;
27632;SDS011;15046;50.930;13.334;2023-05-29T04:48:52;11.30;;;4.22;;
27632;SDS011;15046;50.930;13.334;2023-05-29T04:51:22;10.75;;;5.07;;
27632;SDS011;15046;50.930;13.334;2023-05-29T04:53:50;10.20;;;3.87;;
27632;SDS011;15046;50.930;13.334;2023-05-29T04:56:17;7.85;;;3.97;;
27632;SDS011;15046;50.930;13.334;2023-05-29T04:58:43;11.82;;;4.38;;
27632;SDS011;15046;50.930;13.334;2023-05-29T05:01:09;7.38;;;3.50;;
27632;SDS011;15046;50.930;13.334;2023-05-29T05:03:40;7.78;;;3.63;;
27632;SDS011;15046;50.930;13.334;2023-05-29T05:06:06;8.48;;;3.78;;
27632;SDS011;15046;50.930;13.334;2023-05-29T05:08:32;7.65;;;3.58;;
27632;SDS011;15046;50.930;13.334;2023-05-29T05:10:59;5.57;;;3.13;;
27632;SDS011;15046;50.930;13.334;2023-05-29T05:13:26;7.30;;;3.50;;
27632;SDS011;15046;50.930;13.334;2023-05-29T05:15:52;6.57;;;3.10;;
27632;SDS011;15046;50.930;13.334;2023-05-29T05:18:18;7.63;;;3.53;;
27632;SDS011;15046;50.930;13.334;2023-05-29T05:20:44;9.05;;;3.47;;
27632;SDS011;15046;50.930;13.334;2023-05-29T05:23:10;7.78;;;3.40;;
27632;SDS011;15046;50.930;13.334;2023-05-29T05:25:36;8.90;;;3.53;;
27632;SDS011;15046;50.930;13.334;2023-05-29T05:28:03;7.60;;;3.50;;
27632;SDS011;15046;50.930;13.334;2023-05-29T05:30:31;8.70;;;3.70;;
27632;SDS011;15046;50.930;13.334;2023-05-29T05:32:57;8.00;;;3.25;;
27632;SDS011;15046;50.930;13.334;2023-05-29T05:35:24;6.75;;;3.30;;
27632;SDS011;15046;50.930;13.334;2023-05-29T05:37:50;8.13;;;3.50;;
27632;SDS011;15046;50.930;13.334;2023-05-29T05:40:16;8.55;;;3.78;;
27632;SDS011;15046;50.930;13.334;2023-05-29T05:42:43;7.03;;;3.20;;
27632;SDS011;15046;50.930;13.334;2023-05-29T05:45:09;5.97;;;3.13;;
27632;SDS011;15046;50.930;13.334;2023-05-29T05:47:35;8.77;;;3.45;;
27632;SDS011;15046;50.930;13.334;2023-05-29T05:50:01;7.97;;;2.90;;
27632;SDS011;15046;50.930;13.334;2023-05-29T05:52:26;6.40;;;3.45;;
27632;SDS011;15046;50.930;13.334;2023-05-29T05:54:56;6.73;;;2.80;;
27632;SDS011;15046;50.930;13.334;2023-05-29T05:57:21;6.70;;;2.67;;
27632;SDS011;15046;50.930;13.334;2023-05-29T05:59:51;7.03;;;3.30;;
27632;SDS011;15046;50.930;13.334;2023-05-29T06:02:17;4.75;;;2.90;;
27632;SDS011;15046;50.930;13.334;2023-05-29T06:04:43;6.13;;;3.03;;
27632;SDS011;15046;50.930;13.334;2023-05-29T06:07:09;5.43;;;2.60;;
27632;SDS011;15046;50.930;13.334;2023-05-29T06:09:36;7.55;;;3.25;;
27632;SDS011;15046;50.930;13.334;2023-05-29T06:12:02;9.27;;;3.30;;
27632;SDS011;15046;50.930;13.334;2023-05-29T06:14:28;7.43;;;3.35;;
27632;SDS011;15046;50.930;13.334;2023-05-29T06:16:54;8.07;;;2.67;;
27632;SDS011;15046;50.930;13.334;2023-05-29T06:19:21;6.95;;;3.28;;
27632;SDS011;15046;50.930;13.334;2023-05-29T06:21:47;6.50;;;2.72;;
27632;SDS011;15046;50.930;13.334;2023-05-29T06:24:13;6.13;;;2.55;;
27632;SDS011;15046;50.930;13.334;2023-05-29T06:26:38;6.32;;;2.40;;
27632;SDS011;15046;50.930;13.334;2023-05-29T06:29:08;5.88;;;2.90;;
27632;SDS011;15046;50.930;13.334;2023-05-29T06:31:34;4.68;;;2.30;;
27632;SDS011;15046;50.930;13.334;2023-05-29T06:33:59;7.60;;;2.60;;
27632;SDS011;15046;50.930;13.334;2023-05-29T06:36:25;5.47;;;2.80;;
27632;SDS011;15046;50.930;13.334;2023-05-29T06:38:51;5.95;;;2.50;;
27632;SDS011;15046;50.930;13.334;2023-05-29T06:41:17;9.70;;;2.83;;
27632;SDS011;15046;50.930;13.334;2023-05-29T06:43:43;5.35;;;2.67;;
27632;SDS011;15046;50.930;13.334;2023-05-29T06:46:09;7.65;;;2.80;;
27632;SDS011;15046;50.930;13.334;2023-05-29T06:48:36;6.45;;;2.75;;
27632;SDS011;15046;50.930;13.334;2023-05-29T06:51:02;5.85;;;2.50;;
27632;SDS011;15046;50.930;13.334;2023-05-29T06:53:37;4.75;;;2.53;;
27632;SDS011;15046;50.930;13.334;2023-05-29T06:56:04;7.30;;;2.33;;
27632;SDS011;15046;50.930;13.334;2023-05-29T06:58:30;4.80;;;2.60;;
27632;SDS011;15046;50.930;13.334;2023-05-29T07:00:57;5.40;;;2.60;;
27632;SDS011;15046;50.930;13.334;2023-05-29T07:03:27;5.63;;;2.90;;
27632;SDS011;15046;50.930;13.334;2023-05-29T07:05:53;6.95;;;2.67;;
27632;SDS011;15046;50.930;13.334;2023-05-29T07:08:20;6.95;;;3.00;;
27632;SDS011;15046;50.930;13.334;2023-05-29T07:10:47;11.05;;;2.92;;
27632;SDS011;15046;50.930;13.334;2023-05-29T07:13:17;5.28;;;2.45;;
27632;SDS011;15046;50.930;13.334;2023-05-29T07:15:43;7.70;;;3.22;;
27632;SDS011;15046;50.930;13.334;2023-05-29T07:18:09;6.65;;;2.78;;
27632;SDS011;15046;50.930;13.334;2023-05-29T07:20:36;5.45;;;2.55;;
27632;SDS011;15046;50.930;13.334;2023-05-29T07:23:02;7.47;;;3.03;;
27632;SDS011;15046;50.930;13.334;2023-05-29T07:25:29;8.65;;;2.70;;
27632;SDS011;15046;50.930;13.334;2023-05-29T07:27:55;4.40;;;2.20;;
27632;SDS011;15046;50.930;13.334;2023-05-29T07:30:21;5.68;;;2.65;;
27632;SDS011;15046;50.930;13.334;2023-05-29T07:32:47;5.45;;;2.20;;
27632;SDS011;15046;50.930;13.334;2023-05-29T07:35:13;6.38;;;2.15;;
27632;SDS011;15046;50.930;13.334;2023-05-29T07:37:38;6.80;;;2.80;;
27632;SDS011;15046;50.930;13.334;2023-05-29T07:40:04;7.00;;;2.50;;
27632;SDS011;15046;50.930;13.334;2023-05-29T07:42:31;6.00;;;2.60;;
27632;SDS011;15046;50.930;13.334;2023-05-29T07:44:57;7.25;;;3.05;;
27632;SDS011;15046;50.930;13.334;2023-05-29T07:47:23;7.20;;;2.50;;
27632;SDS011;15046;50.930;13.334;2023-05-29T07:49:49;8.93;;;2.40;;
27632;SDS011;15046;50.930;13.334;2023-05-29T07:52:15;4.88;;;2.33;;
27632;SDS011;15046;50.930;13.334;2023-05-29T07:54:41;7.45;;;3.22;;
27632;SDS011;15046;50.930;13.334;2023-05-29T07:57:06;6.65;;;2.38;;
27632;SDS011;15046;50.930;13.334;2023-05-29T07:59:35;7.78;;;2.50;;
27632;SDS011;15046;50.930;13.334;2023-05-29T08:02:07;20.40;;;3.53;;
27632;SDS011;15046;50.930;13.334;2023-05-29T08:04:33;6.68;;;2.72;;
27632;SDS011;15046;50.930;13.334;2023-05-29T08:07:02;5.93;;;2.97;;
27632;SDS011;15046;50.930;13.334;2023-05-29T08:09:31;5.20;;;2.92;;
27632;SDS011;15046;50.930;13.334;2023-05-29T08:11:57;7.88;;;3.20;;
27632;SDS011;15046;50.930;13.334;2023-05-29T08:14:25;7.90;;;2.50;;
27632;SDS011;15046;50.930;13.334;2023-05-29T08:16:51;7.35;;;2.50;;
27632;SDS011;15046;50.930;13.334;2023-05-29T08:19:17;5.50;;;2.40;;
27632;SDS011;15046;50.930;13.334;2023-05-29T08:21:43;6.78;;;2.90;;
27632;SDS011;15046;50.930;13.334;2023-05-29T08:24:08;5.88;;;2.17;;
27632;SDS011;15046;50.930;13.334;2023-05-29T08:26:34;4.82;;;2.40;;
27632;SDS011;15046;50.930;13.334;2023-05-29T08:29:02;9.15;;;2.65;;
27632;SDS011;15046;50.930;13.334;2023-05-29T08:31:29;5.53;;;2.40;;
27632;SDS011;15046;50.930;13.334;2023-05-29T08:33:55;5.40;;;2.65;;
27632;SDS011;15046;50.930;13.334;2023-05-29T08:36:21;4.53;;;2.25;;
27632;SDS011;15046;50.930;13.334;2023-05-29T08:38:47;6.75;;;2.53;;
27632;SDS011;15046;50.930;13.334;2023-05-29T08:44:09;7.47;;;3.20;;
27632;SDS011;15046;50.930;13.334;2023-05-29T08:46:39;5.43;;;2.70;;
27632;SDS011;15046;50.930;13.334;2023-05-29T08:49:06;9.75;;;3.08;;
27632;SDS011;15046;50.930;13.334;2023-05-29T08:51:36;7.38;;;2.67;;
27632;SDS011;15046;50.930;13.334;2023-05-29T08:54:06;5.38;;;2.55;;
27632;SDS011;15046;50.930;13.334;2023-05-29T08:56:32;5.53;;;2.78;;
27632;SDS011;15046;50.930;13.334;2023-05-29T08:58:59;7.97;;;3.13;;
27632;SDS011;15046;50.930;13.334;2023-05-29T09:01:27;6.18;;;2.63;;
27632;SDS011;15046;50.930;13.334;2023-05-29T09:03:54;6.07;;;3.08;;
27632;SDS011;15046;50.930;13.334;2023-05-29T09:06:21;6.00;;;2.72;;
27632;SDS011;15046;50.930;13.334;2023-05-29T09:08:48;7.60;;;2.90;;
27632;SDS011;15046;50.930;13.334;2023-05-29T09:11:14;7.53;;;3.08;;
27632;SDS011;15046;50.930;13.334;2023-05-29T09:13:41;7.00;;;2.95;;
27632;SDS011;15046;50.930;13.334;2023-05-29T09:16:07;8.10;;;3.30;;
27632;SDS011;15046;50.930;13.334;2023-05-29T09:18:34;6.45;;;2.70;;
27632;SDS011;15046;50.930;13.334;2023-05-29T09:21:05;8.60;;;3.10;;
27632;SDS011;15046;50.930;13.334;2023-05-29T09:23:34;8.38;;;3.00;;
27632;SDS011;15046;50.930;13.334;2023-05-29T09:26:02;5.95;;;2.58;;
27632;SDS011;15046;50.930;13.334;2023-05-29T09:28:29;7.75;;;3.60;;
27632;SDS011;15046;50.930;13.334;2023-05-29T09:30:56;8.73;;;3.38;;
27632;SDS011;15046;50.930;13.334;2023-05-29T09:33:22;7.20;;;2.95;;
27632;SDS011;15046;50.930;13.334;2023-05-29T09:35:48;9.40;;;3.08;;
27632;SDS011;15046;50.930;13.334;2023-05-29T09:38:16;6.13;;;2.83;;
27632;SDS011;15046;50.930;13.334;2023-05-29T09:40:43;6.20;;;2.88;;
27632;SDS011;15046;50.930;13.334;2023-05-29T09:43:12;12.60;;;3.20;;
27632;SDS011;15046;50.930;13.334;2023-05-29T09:48:15;6.18;;;2.78;;
27632;SDS011;15046;50.930;13.334;2023-05-29T09:50:47;6.05;;;3.20;;
27632;SDS011;15046;50.930;13.334;2023-05-29T09:53:20;8.50;;;2.97;;
27632;SDS011;15046;50.930;13.334;2023-05-29T09:55:49;7.30;;;2.97;;
27632;SDS011;15046;50.930;13.334;2023-05-29T09:58:20;4.57;;;2.60;;
27632;SDS011;15046;50.930;13.334;2023-05-29T10:00:47;8.05;;;3.03;;
27632;SDS011;15046;50.930;13.334;2023-05-29T10:03:16;8.32;;;2.80;;
27632;SDS011;15046;50.930;13.334;2023-05-29T10:05:42;7.93;;;3.10;;
27632;SDS011;15046;50.930;13.334;2023-05-29T10:08:13;10.68;;;3.97;;
27632;SDS011;15046;50.930;13.334;2023-05-29T10:10:43;8.38;;;3.30;;
27632;SDS011;15046;50.930;13.334;2023-05-29T10:13:13;7.93;;;3.13;;
27632;SDS011;15046;50.930;13.334;2023-05-29T10:15:41;5.93;;;2.85;;
27632;SDS011;15046;50.930;13.334;2023-05-29T10:18:20;5.15;;;2.85;;
27632;SDS011;15046;50.930;13.334;2023-05-29T10:20:50;6.68;;;2.92;;
27632;SDS011;15046;50.930;13.334;2023-05-29T10:23:18;8.82;;;3.38;;
27632;SDS011;15046;50.930;13.334;2023-05-29T10:25:53;7.03;;;3.10;;
27632;SDS011;15046;50.930;13.334;2023-05-29T10:28:32;5.97;;;2.72;;
27632;SDS011;15046;50.930;13.334;2023-05-29T10:31:03;5.07;;;2.90;;
27632;SDS011;15046;50.930;13.334;2023-05-29T10:36:18;6.60;;;3.58;;
27632;SDS011;15046;50.930;13.334;2023-05-29T10:38:49;5.43;;;2.95;;
27632;SDS011;15046;50.930;13.334;2023-05-29T10:43:57;6.68;;;3.22;;
27632;SDS011;15046;50.930;13.334;2023-05-29T10:49:42;10.15;;;3.40;;
27632;SDS011;15046;50.930;13.334;2023-05-29T10:52:02;5.65;;;2.90;;
27632;SDS011;15046;50.930;13.334;2023-05-29T10:54:30;11.07;;;3.85;;
27632;SDS011;15046;50.930;13.334;2023-05-29T10:57:06;6.70;;;3.03;;
27632;SDS011;15046;50.930;13.334;2023-05-29T10:59:37;6.68;;;3.03;;
27632;SDS011;15046;50.930;13.334;2023-05-29T11:02:03;6.00;;;2.47;;
27632;SDS011;15046;50.930;13.334;2023-05-29T11:04:33;5.45;;;2.80;;
27632;SDS011;15046;50.930;13.334;2023-05-29T11:06:59;6.07;;;2.70;;
27632;SDS011;15046;50.930;13.334;2023-05-29T11:09:35;13.88;;;3.60;;
27632;SDS011;15046;50.930;13.334;2023-05-29T11:15:05;8.05;;;3.30;;
27632;SDS011;15046;50.930;13.334;2023-05-29T11:20:04;7.53;;;2.45;;
27632;SDS011;15046;50.930;13.334;2023-05-29T11:25:14;5.80;;;2.95;;
27632;SDS011;15046;50.930;13.334;2023-05-29T11:27:41;7.13;;;3.10;;
27632;SDS011;15046;50.930;13.334;2023-05-29T11:30:09;7.13;;;3.15;;
27632;SDS011;15046;50.930;13.334;2023-05-29T11:32:36;6.50;;;3.00;;
27632;SDS011;15046;50.930;13.334;2023-05-29T11:35:05;8.60;;;3.38;;
27632;SDS011;15046;50.930;13.334;2023-05-29T11:37:34;7.90;;;3.35;;
27632;SDS011;15046;50.930;13.334;2023-05-29T11:40:07;6.18;;;2.80;;
27632;SDS011;15046;50.930;13.334;2023-05-29T11:42:36;5.70;;;2.50;;
27632;SDS011;15046;50.930;13.334;2023-05-29T11:45:19;6.63;;;3.10;;
27632;SDS011;15046;50.930;13.334;2023-05-29T11:48:04;5.75;;;3.00;;
27632;SDS011;15046;50.930;13.334;2023-05-29T11:50:32;6.95;;;3.10;;
27632;SDS011;15046;50.930;13.334;2023-05-29T11:52:59;6.78;;;3.10;;
27632;SDS011;15046;50.930;13.334;2023-05-29T11:55:26;5.97;;;3.05;;
27632;SDS011;15046;50.930;13.334;2023-05-29T11:57:56;5.80;;;2.97;;
27632;SDS011;15046;50.930;13.334;2023-05-29T12:00:24;4.65;;;2.92;;
27632;SDS011;15046;50.930;13.334;2023-05-29T12:02:50;6.03;;;3.17;;
27632;SDS011;15046;50.930;13.334;2023-05-29T12:05:17;6.18;;;3.00;;
27632;SDS011;15046;50.930;13.334;2023-05-29T12:07:50;7.15;;;3.30;;
27632;SDS011;15046;50.930;13.334;2023-05-29T12:10:19;9.10;;;3.10;;
27632;SDS011;15046;50.930;13.334;2023-05-29T12:12:56;5.03;;;2.78;;
27632;SDS011;15046;50.930;13.334;2023-05-29T12:15:23;7.50;;;3.13;;
27632;SDS011;15046;50.930;13.334;2023-05-29T12:17:50;5.75;;;2.72;;
27632;SDS011;15046;50.930;13.334;2023-05-29T12:20:17;5.15;;;2.85;;
27632;SDS011;15046;50.930;13.334;2023-05-29T12:22:44;7.47;;;3.10;;
27632;SDS011;15046;50.930;13.334;2023-05-29T12:25:20;6.38;;;3.08;;
27632;SDS011;15046;50.930;13.334;2023-05-29T12:27:47;5.10;;;2.70;;
27632;SDS011;15046;50.930;13.334;2023-05-29T12:30:14;8.20;;;3.50;;
27632;SDS011;15046;50.930;13.334;2023-05-29T12:32:44;6.05;;;3.25;;
27632;SDS011;15046;50.930;13.334;2023-05-29T12:35:24;7.78;;;2.92;;
27632;SDS011;15046;50.930;13.334;2023-05-29T12:38:02;6.18;;;3.10;;
27632;SDS011;15046;50.930;13.334;2023-05-29T12:40:33;5.65;;;2.83;;
27632;SDS011;15046;50.930;13.334;2023-05-29T12:43:02;4.20;;;2.70;;
27632;SDS011;15046;50.930;13.334;2023-05-29T12:45:34;7.10;;;2.80;;
27632;SDS011;15046;50.930;13.334;2023-05-29T12:48:04;6.50;;;3.17;;
27632;SDS011;15046;50.930;13.334;2023-05-29T12:50:31;6.47;;;2.90;;
27632;SDS011;15046;50.930;13.334;2023-05-29T12:53:01;5.45;;;3.10;;
27632;SDS011;15046;50.930;13.334;2023-05-29T12:58:04;8.60;;;3.40;;
27632;SDS011;15046;50.930;13.334;2023-05-29T13:00:32;6.50;;;3.15;;
27632;SDS011;15046;50.930;13.334;2023-05-29T13:02:59;5.50;;;2.33;;
27632;SDS011;15046;50.930;13.334;2023-05-29T13:05:26;8.27;;;3.50;;
27632;SDS011;15046;50.930;13.334;2023-05-29T13:07:53;8.82;;;3.38;;
27632;SDS011;15046;50.930;13.334;2023-05-29T13:10:19;5.88;;;2.72;;
27632;SDS011;15046;50.930;13.334;2023-05-29T13:12:46;6.60;;;2.83;;
27632;SDS011;15046;50.930;13.334;2023-05-29T13:15:16;5.28;;;2.50;;
27632;SDS011;15046;50.930;13.334;2023-05-29T13:17:42;5.97;;;3.20;;
27632;SDS011;15046;50.930;13.334;2023-05-29T13:20:09;6.22;;;2.90;;
27632;SDS011;15046;50.930;13.334;2023-05-29T13:22:37;6.22;;;2.70;;
27632;SDS011;15046;50.930;13.334;2023-05-29T13:25:04;7.85;;;3.28;;
27632;SDS011;15046;50.930;13.334;2023-05-29T13:27:32;7.15;;;3.53;;
27632;SDS011;15046;50.930;13.334;2023-05-29T13:29:59;5.38;;;2.58;;
27632;SDS011;15046;50.930;13.334;2023-05-29T13:32:25;6.15;;;2.97;;
27632;SDS011;15046;50.930;13.334;2023-05-29T13:34:51;7.25;;;3.22;;
27632;SDS011;15046;50.930;13.334;2023-05-29T13:37:17;7.68;;;2.95;;
27632;SDS011;15046;50.930;13.334;2023-05-29T13:39:43;7.47;;;3.35;;
27632;SDS011;15046;50.930;13.334;2023-05-29T13:42:11;5.80;;;2.60;;
27632;SDS011;15046;50.930;13.334;2023-05-29T13:44:37;8.07;;;3.40;;
27632;SDS011;15046;50.930;13.334;2023-05-29T13:47:03;6.93;;;2.58;;
27632;SDS011;15046;50.930;13.334;2023-05-29T13:49:30;6.75;;;3.10;;
27632;SDS011;15046;50.930;13.334;2023-05-29T13:51:56;6.88;;;2.85;;
27632;SDS011;15046;50.930;13.334;2023-05-29T13:54:22;6.47;;;3.15;;
27632;SDS011;15046;50.930;13.334;2023-05-29T13:56:48;7.47;;;3.38;;
27632;SDS011;15046;50.930;13.334;2023-05-29T13:59:14;5.70;;;2.88;;
27632;SDS011;15046;50.930;13.334;2023-05-29T14:01:40;5.88;;;3.00;;
27632;SDS011;15046;50.930;13.334;2023-05-29T14:04:06;7.32;;;3.00;;
27632;SDS011;15046;50.930;13.334;2023-05-29T14:06:32;8.23;;;3.80;;
27632;SDS011;15046;50.930;13.334;2023-05-29T14:08:59;5.75;;;3.05;;
27632;SDS011;15046;50.930;13.334;2023-05-29T14:11:26;5.90;;;2.72;;
27632;SDS011;15046;50.930;13.334;2023-05-29T14:13:52;6.40;;;2.78;;
27632;SDS011;15046;50.930;13.334;2023-05-29T14:16:18;4.72;;;2.78;;
27632;SDS011;15046;50.930;13.334;2023-05-29T14:18:44;8.50;;;3.20;;
27632;SDS011;15046;50.930;13.334;2023-05-29T14:21:10;5.75;;;3.20;;
27632;SDS011;15046;50.930;13.334;2023-05-29T14:23:37;6.25;;;2.90;;
27632;SDS011;15046;50.930;13.334;2023-05-29T14:26:03;7.95;;;3.00;;
27632;SDS011;15046;50.930;13.334;2023-05-29T14:28:29;7.82;;;2.80;;
27632;SDS011;15046;50.930;13.334;2023-05-29T14:30:55;5.78;;;2.97;;
27632;SDS011;15046;50.930;13.334;2023-05-29T14:33:21;6.85;;;3.20;;
27632;SDS011;15046;50.930;13.334;2023-05-29T14:35:47;6.82;;;3.00;;
27632;SDS011;15046;50.930;13.334;2023-05-29T14:38:12;6.18;;;2.83;;
27632;SDS011;15046;50.930;13.334;2023-05-29T14:40:38;5.90;;;2.80;;
27632;SDS011;15046;50.930;13.334;2023-05-29T14:43:04;12.40;;;2.75;;
27632;SDS011;15046;50.930;13.334;2023-05-29T14:45:31;6.20;;;3.17;;
27632;SDS011;15046;50.930;13.334;2023-05-29T14:47:57;6.55;;;2.97;;
27632;SDS011;15046;50.930;13.334;2023-05-29T14:50:22;7.20;;;3.00;;
27632;SDS011;15046;50.930;13.334;2023-05-29T14:52:48;8.20;;;2.92;;
27632;SDS011;15046;50.930;13.334;2023-05-29T14:55:14;5.85;;;2.83;;
27632;SDS011;15046;50.930;13.334;2023-05-29T14:57:40;5.40;;;3.08;;
27632;SDS011;15046;50.930;13.334;2023-05-29T15:00:06;6.88;;;2.90;;
27632;SDS011;15046;50.930;13.334;2023-05-29T15:02:33;5.35;;;3.00;;
27632;SDS011;15046;50.930;13.334;2023-05-29T15:04:59;6.80;;;3.95;;
27632;SDS011;15046;50.930;13.334;2023-05-29T15:07:25;12.70;;;3.72;;
27632;SDS011;15046;50.930;13.334;2023-05-29T15:09:51;9.98;;;3.60;;